sensor_id;sensor_type;location;lat;lon;timestamp;temperature;humidity
14277;DHT22;7222;57.346;12.150;2022-08-05T00:01:41;16.70;99.90
14277;DHT22;7222;57.346;12.150;2022-08-05T00:04:08;16.60;99.90
14277;DHT22;7222;57.346;12.150;2022-08-05T00:06:36;16.50;99.90
14277;DHT22;7222;57.346;12.150;2022-08-05T00:09:03;16.40;99.90
14277;DHT22;7222;57.346;12.150;2022-08-05T00:11:31;16.30;99.90
14277;DHT22;7222;57.346;12.150;2022-08-05T00:13:59;16.40;99.90
14277;DHT22;7222;57.346;12.150;2022-08-05T00:16:26;16.30;99.90
14277;DHT22;7222;57.346;12.150;2022-08-05T00:18:53;16.20;99.90
14277;DHT22;7222;57.346;12.150;2022-08-05T00:21:20;16.20;99.90
14277;DHT22;7222;57.346;12.150;2022-08-05T00:23:48;16.10;99.90
14277;DHT22;7222;57.346;12.150;2022-08-05T00:26:15;16.10;99.90
14277;DHT22;7222;57.346;12.150;2022-08-05T00:28:44;16.10;99.90
14277;DHT22;7222;57.346;12.150;2022-08-05T00:31:12;16.10;99.90
14277;DHT22;7222;57.346;12.150;2022-08-05T00:33:40;16.10;99.90
14277;DHT22;7222;57.346;12.150;2022-08-05T00:36:07;16.20;99.90
14277;DHT22;7222;57.346;12.150;2022-08-05T00:38:34;16.20;99.90
14277;DHT22;7222;57.346;12.150;2022-08-05T00:41:01;16.20;99.90
14277;DHT22;7222;57.346;12.150;2022-08-05T00:43:31;16.00;99.90
14277;DHT22;7222;57.346;12.150;2022-08-05T00:45:58;15.90;99.90
14277;DHT22;7222;57.346;12.150;2022-08-05T00:48:26;15.80;99.90
14277;DHT22;7222;57.346;12.150;2022-08-05T00:50:53;15.70;99.90
14277;DHT22;7222;57.346;12.150;2022-08-05T00:53:22;15.60;99.90
14277;DHT22;7222;57.346;12.150;2022-08-05T00:55:49;15.40;99.90
14277;DHT22;7222;57.346;12.150;2022-08-05T00:58:17;15.40;99.90
14277;DHT22;7222;57.346;12.150;2022-08-05T01:00:45;15.40;99.90
14277;DHT22;7222;57.346;12.150;2022-08-05T01:03:12;15.40;99.90
14277;DHT22;7222;57.346;12.150;2022-08-05T01:05:41;15.40;99.90
14277;DHT22;7222;57.346;12.150;2022-08-05T01:08:08;15.30;99.90
14277;DHT22;7222;57.346;12.150;2022-08-05T01:10:40;15.50;99.90
14277;DHT22;7222;57.346;12.150;2022-08-05T01:13:14;15.50;99.90
14277;DHT22;7222;57.346;12.150;2022-08-05T01:15:47;15.60;99.90
14277;DHT22;7222;57.346;12.150;2022-08-05T01:18:21;15.60;99.90
14277;DHT22;7222;57.346;12.150;2022-08-05T01:21:01;15.60;99.90
14277;DHT22;7222;57.346;12.150;2022-08-05T01:23:43;15.50;99.90
14277;DHT22;7222;57.346;12.150;2022-08-05T01:26:39;15.50;99.90
14277;DHT22;7222;57.346;12.150;2022-08-05T01:29:15;15.50;99.90
14277;DHT22;7222;57.346;12.150;2022-08-05T01:31:45;15.40;99.90
14277;DHT22;7222;57.346;12.150;2022-08-05T01:34:16;15.30;99.90
14277;DHT22;7222;57.346;12.150;2022-08-05T01:36:46;15.20;99.90
14277;DHT22;7222;57.346;12.150;2022-08-05T01:39:16;15.10;99.90
14277;DHT22;7222;57.346;12.150;2022-08-05T01:41:44;15.10;99.90
14277;DHT22;7222;57.346;12.150;2022-08-05T01:44:14;15.00;99.90
14277;DHT22;7222;57.346;12.150;2022-08-05T01:46:43;15.10;99.90
14277;DHT22;7222;57.346;12.150;2022-08-05T01:49:14;15.00;99.90
14277;DHT22;7222;57.346;12.150;2022-08-05T01:51:41;14.90;99.90
14277;DHT22;7222;57.346;12.150;2022-08-05T01:54:09;14.80;99.90
14277;DHT22;7222;57.346;12.150;2022-08-05T01:56:39;14.80;99.90
14277;DHT22;7222;57.346;12.150;2022-08-05T01:59:09;14.80;99.90
14277;DHT22;7222;57.346;12.150;2022-08-05T02:01:39;14.70;99.90
14277;DHT22;7222;57.346;12.150;2022-08-05T02:04:10;14.70;99.90
14277;DHT22;7222;57.346;12.150;2022-08-05T02:06:37;14.80;99.90
14277;DHT22;7222;57.346;12.150;2022-08-05T02:09:05;14.80;99.90
14277;DHT22;7222;57.346;12.150;2022-08-05T02:11:39;14.80;99.90
14277;DHT22;7222;57.346;12.150;2022-08-05T02:14:11;14.80;99.90
14277;DHT22;7222;57.346;12.150;2022-08-05T02:16:44;14.80;99.90
14277;DHT22;7222;57.346;12.150;2022-08-05T02:19:18;14.70;99.90
14277;DHT22;7222;57.346;12.150;2022-08-05T02:21:53;14.60;99.90
14277;DHT22;7222;57.346;12.150;2022-08-05T02:24:27;14.60;99.90
14277;DHT22;7222;57.346;12.150;2022-08-05T02:27:00;14.60;99.90
14277;DHT22;7222;57.346;12.150;2022-08-05T02:29:28;14.40;99.90
14277;DHT22;7222;57.346;12.150;2022-08-05T02:31:58;14.40;99.90
14277;DHT22;7222;57.346;12.150;2022-08-05T02:34:30;14.60;99.90
14277;DHT22;7222;57.346;12.150;2022-08-05T02:37:02;14.50;99.90
14277;DHT22;7222;57.346;12.150;2022-08-05T02:39:33;14.40;99.90
14277;DHT22;7222;57.346;12.150;2022-08-05T02:42:01;14.40;99.90
14277;DHT22;7222;57.346;12.150;2022-08-05T02:44:31;14.40;99.90
14277;DHT22;7222;57.346;12.150;2022-08-05T02:47:04;14.40;99.90
14277;DHT22;7222;57.346;12.150;2022-08-05T02:49:34;14.50;99.90
14277;DHT22;7222;57.346;12.150;2022-08-05T02:52:04;14.40;99.90
14277;DHT22;7222;57.346;12.150;2022-08-05T02:54:32;14.40;99.90
14277;DHT22;7222;57.346;12.150;2022-08-05T02:57:01;14.40;99.90
14277;DHT22;7222;57.346;12.150;2022-08-05T02:59:28;14.30;99.90
14277;DHT22;7222;57.346;12.150;2022-08-05T03:01:57;14.30;99.90
14277;DHT22;7222;57.346;12.150;2022-08-05T03:04:27;14.50;99.90
14277;DHT22;7222;57.346;12.150;2022-08-05T03:06:55;14.50;99.90
14277;DHT22;7222;57.346;12.150;2022-08-05T03:09:23;14.40;99.90
14277;DHT22;7222;57.346;12.150;2022-08-05T03:11:51;14.40;99.90
14277;DHT22;7222;57.346;12.150;2022-08-05T03:14:18;14.40;99.90
14277;DHT22;7222;57.346;12.150;2022-08-05T03:16:45;14.20;99.90
14277;DHT22;7222;57.346;12.150;2022-08-05T03:19:12;14.30;99.90
14277;DHT22;7222;57.346;12.150;2022-08-05T03:21:40;14.20;99.90
14277;DHT22;7222;57.346;12.150;2022-08-05T03:24:08;14.20;99.90
14277;DHT22;7222;57.346;12.150;2022-08-05T03:26:36;14.20;99.90
14277;DHT22;7222;57.346;12.150;2022-08-05T03:29:03;14.10;99.90
14277;DHT22;7222;57.346;12.150;2022-08-05T03:31:30;14.20;99.90
14277;DHT22;7222;57.346;12.150;2022-08-05T03:33:58;14.20;99.90
14277;DHT22;7222;57.346;12.150;2022-08-05T03:36:25;14.20;99.90
14277;DHT22;7222;57.346;12.150;2022-08-05T03:38:54;14.40;99.90
14277;DHT22;7222;57.346;12.150;2022-08-05T03:41:21;14.60;99.90
14277;DHT22;7222;57.346;12.150;2022-08-05T03:43:48;14.30;99.90
14277;DHT22;7222;57.346;12.150;2022-08-05T03:46:15;14.30;99.90
14277;DHT22;7222;57.346;12.150;2022-08-05T03:48:42;14.10;99.90
14277;DHT22;7222;57.346;12.150;2022-08-05T03:51:12;14.10;99.90
14277;DHT22;7222;57.346;12.150;2022-08-05T03:53:49;14.10;99.90
14277;DHT22;7222;57.346;12.150;2022-08-05T03:56:25;14.20;99.90
14277;DHT22;7222;57.346;12.150;2022-08-05T03:58:58;14.40;99.90
14277;DHT22;7222;57.346;12.150;2022-08-05T04:01:27;14.30;99.90
14277;DHT22;7222;57.346;12.150;2022-08-05T04:03:57;14.50;99.90
14277;DHT22;7222;57.346;12.150;2022-08-05T04:06:25;14.40;99.90
14277;DHT22;7222;57.346;12.150;2022-08-05T04:08:53;14.50;99.90
14277;DHT22;7222;57.346;12.150;2022-08-05T04:11:22;14.50;99.90
14277;DHT22;7222;57.346;12.150;2022-08-05T04:13:50;14.30;99.90
14277;DHT22;7222;57.346;12.150;2022-08-05T04:16:17;14.40;99.90
14277;DHT22;7222;57.346;12.150;2022-08-05T04:18:45;14.80;99.90
14277;DHT22;7222;57.346;12.150;2022-08-05T04:21:12;14.50;99.90
14277;DHT22;7222;57.346;12.150;2022-08-05T04:23:39;14.60;99.90
14277;DHT22;7222;57.346;12.150;2022-08-05T04:26:06;14.80;99.90
14277;DHT22;7222;57.346;12.150;2022-08-05T04:28:35;14.70;99.90
14277;DHT22;7222;57.346;12.150;2022-08-05T04:31:01;14.70;99.90
14277;DHT22;7222;57.346;12.150;2022-08-05T04:33:29;14.90;99.90
14277;DHT22;7222;57.346;12.150;2022-08-05T04:35:56;14.70;99.90
14277;DHT22;7222;57.346;12.150;2022-08-05T04:38:23;14.90;99.90
14277;DHT22;7222;57.346;12.150;2022-08-05T04:40:49;14.90;99.90
14277;DHT22;7222;57.346;12.150;2022-08-05T04:43:16;14.80;99.90
14277;DHT22;7222;57.346;12.150;2022-08-05T04:45:45;14.70;99.90
14277;DHT22;7222;57.346;12.150;2022-08-05T04:48:13;14.60;99.90
14277;DHT22;7222;57.346;12.150;2022-08-05T04:50:41;14.50;99.90
14277;DHT22;7222;57.346;12.150;2022-08-05T04:53:09;14.80;99.90
14277;DHT22;7222;57.346;12.150;2022-08-05T04:55:37;14.60;99.90
14277;DHT22;7222;57.346;12.150;2022-08-05T04:58:04;14.70;99.90
14277;DHT22;7222;57.346;12.150;2022-08-05T05:00:31;14.80;99.90
14277;DHT22;7222;57.346;12.150;2022-08-05T05:03:00;14.60;99.90
14277;DHT22;7222;57.346;12.150;2022-08-05T05:05:28;14.70;99.90
14277;DHT22;7222;57.346;12.150;2022-08-05T05:07:59;15.00;99.90
14277;DHT22;7222;57.346;12.150;2022-08-05T05:10:26;15.00;99.90
14277;DHT22;7222;57.346;12.150;2022-08-05T05:12:53;15.30;99.90
14277;DHT22;7222;57.346;12.150;2022-08-05T05:15:20;15.20;99.90
14277;DHT22;7222;57.346;12.150;2022-08-05T05:17:47;15.20;99.90
14277;DHT22;7222;57.346;12.150;2022-08-05T05:20:15;15.20;99.90
14277;DHT22;7222;57.346;12.150;2022-08-05T05:22:42;15.20;99.90
14277;DHT22;7222;57.346;12.150;2022-08-05T05:25:09;15.10;99.90
14277;DHT22;7222;57.346;12.150;2022-08-05T05:27:37;15.00;99.90
14277;DHT22;7222;57.346;12.150;2022-08-05T05:30:05;15.10;99.90
14277;DHT22;7222;57.346;12.150;2022-08-05T05:32:32;15.00;99.90
14277;DHT22;7222;57.346;12.150;2022-08-05T05:34:59;15.10;99.90
14277;DHT22;7222;57.346;12.150;2022-08-05T05:37:27;15.30;99.90
14277;DHT22;7222;57.346;12.150;2022-08-05T05:39:54;15.10;99.90
14277;DHT22;7222;57.346;12.150;2022-08-05T05:42:21;15.20;99.90
14277;DHT22;7222;57.346;12.150;2022-08-05T05:44:48;15.50;99.90
14277;DHT22;7222;57.346;12.150;2022-08-05T05:47:15;15.50;99.90
14277;DHT22;7222;57.346;12.150;2022-08-05T05:49:42;15.20;99.90
14277;DHT22;7222;57.346;12.150;2022-08-05T05:52:09;15.20;99.90
14277;DHT22;7222;57.346;12.150;2022-08-05T05:54:38;15.20;99.90
14277;DHT22;7222;57.346;12.150;2022-08-05T05:57:14;15.30;99.90
14277;DHT22;7222;57.346;12.150;2022-08-05T05:59:41;15.30;99.90
14277;DHT22;7222;57.346;12.150;2022-08-05T06:02:08;15.30;99.90
14277;DHT22;7222;57.346;12.150;2022-08-05T06:04:35;15.40;99.90
14277;DHT22;7222;57.346;12.150;2022-08-05T06:07:02;15.40;99.90
14277;DHT22;7222;57.346;12.150;2022-08-05T06:09:29;15.40;99.90
14277;DHT22;7222;57.346;12.150;2022-08-05T06:11:58;15.40;99.90
14277;DHT22;7222;57.346;12.150;2022-08-05T06:14:25;15.50;99.90
14277;DHT22;7222;57.346;12.150;2022-08-05T06:16:52;15.70;99.90
14277;DHT22;7222;57.346;12.150;2022-08-05T06:19:19;15.40;99.90
14277;DHT22;7222;57.346;12.150;2022-08-05T06:21:46;15.40;99.90
14277;DHT22;7222;57.346;12.150;2022-08-05T06:24:13;15.30;99.90
14277;DHT22;7222;57.346;12.150;2022-08-05T06:26:40;15.50;99.90
14277;DHT22;7222;57.346;12.150;2022-08-05T06:29:09;15.50;99.90
14277;DHT22;7222;57.346;12.150;2022-08-05T06:31:36;15.50;99.90
14277;DHT22;7222;57.346;12.150;2022-08-05T06:34:03;15.40;99.90
14277;DHT22;7222;57.346;12.150;2022-08-05T06:36:31;15.30;99.90
14277;DHT22;7222;57.346;12.150;2022-08-05T06:38:58;15.40;99.90
14277;DHT22;7222;57.346;12.150;2022-08-05T06:41:25;15.60;99.90
14277;DHT22;7222;57.346;12.150;2022-08-05T06:43:52;15.60;99.90
14277;DHT22;7222;57.346;12.150;2022-08-05T06:46:20;15.50;99.90
14277;DHT22;7222;57.346;12.150;2022-08-05T06:48:47;15.40;99.90
14277;DHT22;7222;57.346;12.150;2022-08-05T06:51:14;15.50;99.90
14277;DHT22;7222;57.346;12.150;2022-08-05T06:53:41;15.60;99.90
14277;DHT22;7222;57.346;12.150;2022-08-05T06:56:08;15.60;99.90
14277;DHT22;7222;57.346;12.150;2022-08-05T06:58:35;15.70;99.90
14277;DHT22;7222;57.346;12.150;2022-08-05T07:01:03;15.60;99.90
14277;DHT22;7222;57.346;12.150;2022-08-05T07:03:32;15.60;99.90
14277;DHT22;7222;57.346;12.150;2022-08-05T07:06:00;15.70;99.90
14277;DHT22;7222;57.346;12.150;2022-08-05T07:08:28;15.80;99.90
14277;DHT22;7222;57.346;12.150;2022-08-05T07:10:55;15.70;99.90
14277;DHT22;7222;57.346;12.150;2022-08-05T07:13:23;15.60;99.90
14277;DHT22;7222;57.346;12.150;2022-08-05T07:16:07;15.50;99.90
14277;DHT22;7222;57.346;12.150;2022-08-05T07:18:53;15.50;99.90
14277;DHT22;7222;57.346;12.150;2022-08-05T07:21:20;15.50;99.90
14277;DHT22;7222;57.346;12.150;2022-08-05T07:23:47;15.70;99.90
14277;DHT22;7222;57.346;12.150;2022-08-05T07:26:14;15.90;99.90
14277;DHT22;7222;57.346;12.150;2022-08-05T07:28:41;16.00;99.90
14277;DHT22;7222;57.346;12.150;2022-08-05T07:31:08;16.20;99.90
14277;DHT22;7222;57.346;12.150;2022-08-05T07:33:35;16.40;99.90
14277;DHT22;7222;57.346;12.150;2022-08-05T07:36:05;16.60;99.90
14277;DHT22;7222;57.346;12.150;2022-08-05T07:38:32;16.90;99.90
14277;DHT22;7222;57.346;12.150;2022-08-05T07:41:00;17.10;99.90
14277;DHT22;7222;57.346;12.150;2022-08-05T07:43:27;17.20;99.90
14277;DHT22;7222;57.346;12.150;2022-08-05T07:45:54;17.40;99.90
14277;DHT22;7222;57.346;12.150;2022-08-05T07:48:21;17.40;99.90
14277;DHT22;7222;57.346;12.150;2022-08-05T07:50:48;17.10;99.90
14277;DHT22;7222;57.346;12.150;2022-08-05T07:53:17;17.40;99.90
14277;DHT22;7222;57.346;12.150;2022-08-05T07:55:44;17.50;99.90
14277;DHT22;7222;57.346;12.150;2022-08-05T07:58:11;17.90;99.90
14277;DHT22;7222;57.346;12.150;2022-08-05T08:00:38;17.60;99.90
14277;DHT22;7222;57.346;12.150;2022-08-05T08:03:09;17.80;99.90
14277;DHT22;7222;57.346;12.150;2022-08-05T08:05:36;17.90;99.90
14277;DHT22;7222;57.346;12.150;2022-08-05T08:08:04;18.20;99.90
14277;DHT22;7222;57.346;12.150;2022-08-05T08:10:32;17.90;99.90
14277;DHT22;7222;57.346;12.150;2022-08-05T08:12:59;17.80;99.90
14277;DHT22;7222;57.346;12.150;2022-08-05T08:15:27;18.00;99.90
14277;DHT22;7222;57.346;12.150;2022-08-05T08:17:54;17.90;99.90
14277;DHT22;7222;57.346;12.150;2022-08-05T08:20:23;17.60;99.90
14277;DHT22;7222;57.346;12.150;2022-08-05T08:22:51;17.50;99.90
14277;DHT22;7222;57.346;12.150;2022-08-05T08:25:18;17.70;99.90
14277;DHT22;7222;57.346;12.150;2022-08-05T08:27:47;17.80;99.90
14277;DHT22;7222;57.346;12.150;2022-08-05T08:30:14;17.80;99.90
14277;DHT22;7222;57.346;12.150;2022-08-05T08:32:41;18.40;99.90
14277;DHT22;7222;57.346;12.150;2022-08-05T08:35:09;18.90;99.90
14277;DHT22;7222;57.346;12.150;2022-08-05T08:37:36;18.70;99.90
14277;DHT22;7222;57.346;12.150;2022-08-05T08:40:03;19.20;99.90
14277;DHT22;7222;57.346;12.150;2022-08-05T08:42:31;19.60;99.90
14277;DHT22;7222;57.346;12.150;2022-08-05T08:45:01;19.70;99.90
14277;DHT22;7222;57.346;12.150;2022-08-05T08:47:29;20.10;99.90
14277;DHT22;7222;57.346;12.150;2022-08-05T08:49:57;19.30;99.90
14277;DHT22;7222;57.346;12.150;2022-08-05T08:52:30;19.80;99.90
14277;DHT22;7222;57.346;12.150;2022-08-05T08:54:57;19.50;99.90
14277;DHT22;7222;57.346;12.150;2022-08-05T08:57:25;18.50;99.90
14277;DHT22;7222;57.346;12.150;2022-08-05T08:59:53;19.00;99.90
14277;DHT22;7222;57.346;12.150;2022-08-05T09:02:22;19.20;99.90
14277;DHT22;7222;57.346;12.150;2022-08-05T09:04:49;19.20;99.90
14277;DHT22;7222;57.346;12.150;2022-08-05T09:07:17;18.80;99.90
14277;DHT22;7222;57.346;12.150;2022-08-05T09:09:44;19.00;99.90
14277;DHT22;7222;57.346;12.150;2022-08-05T09:12:11;18.90;99.90
14277;DHT22;7222;57.346;12.150;2022-08-05T09:14:38;19.90;99.90
14277;DHT22;7222;57.346;12.150;2022-08-05T09:17:06;21.00;99.90
14277;DHT22;7222;57.346;12.150;2022-08-05T09:19:35;21.10;99.90
14277;DHT22;7222;57.346;12.150;2022-08-05T09:22:03;19.50;99.90
14277;DHT22;7222;57.346;12.150;2022-08-05T09:24:30;19.30;99.90
14277;DHT22;7222;57.346;12.150;2022-08-05T09:26:57;19.50;99.90
14277;DHT22;7222;57.346;12.150;2022-08-05T09:29:37;19.30;99.90
14277;DHT22;7222;57.346;12.150;2022-08-05T09:32:06;20.10;99.90
14277;DHT22;7222;57.346;12.150;2022-08-05T09:34:47;19.80;99.90
14277;DHT22;7222;57.346;12.150;2022-08-05T09:37:19;19.60;99.90
14277;DHT22;7222;57.346;12.150;2022-08-05T09:39:46;20.10;99.90
14277;DHT22;7222;57.346;12.150;2022-08-05T09:42:14;20.20;99.90
14277;DHT22;7222;57.346;12.150;2022-08-05T09:44:42;19.80;99.90
14277;DHT22;7222;57.346;12.150;2022-08-05T09:47:12;21.20;99.90
14277;DHT22;7222;57.346;12.150;2022-08-05T09:49:40;20.40;99.90
14277;DHT22;7222;57.346;12.150;2022-08-05T09:52:22;20.60;99.90
14277;DHT22;7222;57.346;12.150;2022-08-05T09:54:54;19.20;99.90
14277;DHT22;7222;57.346;12.150;2022-08-05T09:57:28;20.20;99.90
14277;DHT22;7222;57.346;12.150;2022-08-05T09:59:57;19.90;99.90
14277;DHT22;7222;57.346;12.150;2022-08-05T10:02:34;19.10;99.90
14277;DHT22;7222;57.346;12.150;2022-08-05T10:05:10;19.40;99.90
14277;DHT22;7222;57.346;12.150;2022-08-05T10:07:48;20.50;99.90
14277;DHT22;7222;57.346;12.150;2022-08-05T10:10:16;20.50;99.90
14277;DHT22;7222;57.346;12.150;2022-08-05T10:12:44;19.50;99.90
14277;DHT22;7222;57.346;12.150;2022-08-05T10:15:17;19.10;99.90
14277;DHT22;7222;57.346;12.150;2022-08-05T10:18:05;19.50;99.90
14277;DHT22;7222;57.346;12.150;2022-08-05T10:20:33;20.40;99.90
14277;DHT22;7222;57.346;12.150;2022-08-05T10:23:02;19.70;99.90
14277;DHT22;7222;57.346;12.150;2022-08-05T10:25:29;18.60;99.90
14277;DHT22;7222;57.346;12.150;2022-08-05T10:27:57;20.20;99.90
14277;DHT22;7222;57.346;12.150;2022-08-05T10:30:24;20.80;99.90
14277;DHT22;7222;57.346;12.150;2022-08-05T10:32:51;21.40;99.90
14277;DHT22;7222;57.346;12.150;2022-08-05T10:35:19;19.10;99.90
14277;DHT22;7222;57.346;12.150;2022-08-05T10:37:46;19.60;99.90
14277;DHT22;7222;57.346;12.150;2022-08-05T10:40:20;20.20;99.90
14277;DHT22;7222;57.346;12.150;2022-08-05T10:42:51;18.90;99.90
14277;DHT22;7222;57.346;12.150;2022-08-05T10:45:25;19.60;99.90
14277;DHT22;7222;57.346;12.150;2022-08-05T10:47:52;19.70;99.90
14277;DHT22;7222;57.346;12.150;2022-08-05T10:50:19;19.80;99.90
14277;DHT22;7222;57.346;12.150;2022-08-05T10:52:48;20.10;99.90
14277;DHT22;7222;57.346;12.150;2022-08-05T10:55:23;21.20;99.90
14277;DHT22;7222;57.346;12.150;2022-08-05T10:58:05;21.90;99.90
14277;DHT22;7222;57.346;12.150;2022-08-05T11:00:33;21.50;99.90
14277;DHT22;7222;57.346;12.150;2022-08-05T11:03:11;22.10;99.90
14277;DHT22;7222;57.346;12.150;2022-08-05T11:05:39;20.80;99.90
14277;DHT22;7222;57.346;12.150;2022-08-05T11:08:07;19.10;99.90
14277;DHT22;7222;57.346;12.150;2022-08-05T11:10:37;19.60;99.90
14277;DHT22;7222;57.346;12.150;2022-08-05T11:13:07;20.10;99.90
14277;DHT22;7222;57.346;12.150;2022-08-05T11:15:36;20.40;99.90
14277;DHT22;7222;57.346;12.150;2022-08-05T11:18:07;20.70;99.90
14277;DHT22;7222;57.346;12.150;2022-08-05T11:20:42;20.50;99.90
14277;DHT22;7222;57.346;12.150;2022-08-05T11:23:27;20.30;99.90
14277;DHT22;7222;57.346;12.150;2022-08-05T11:26:10;19.60;99.90
14277;DHT22;7222;57.346;12.150;2022-08-05T11:28:45;20.70;99.90
14277;DHT22;7222;57.346;12.150;2022-08-05T11:31:23;21.90;99.90
14277;DHT22;7222;57.346;12.150;2022-08-05T11:33:55;22.60;99.90
14277;DHT22;7222;57.346;12.150;2022-08-05T11:36:46;22.10;99.90
14277;DHT22;7222;57.346;12.150;2022-08-05T11:39:18;21.40;99.90
14277;DHT22;7222;57.346;12.150;2022-08-05T11:42:05;20.70;99.90
14277;DHT22;7222;57.346;12.150;2022-08-05T11:44:36;21.20;99.90
14277;DHT22;7222;57.346;12.150;2022-08-05T11:47:05;20.60;99.90
14277;DHT22;7222;57.346;12.150;2022-08-05T11:49:32;21.40;99.90
14277;DHT22;7222;57.346;12.150;2022-08-05T11:51:59;22.20;99.90
14277;DHT22;7222;57.346;12.150;2022-08-05T11:54:28;21.60;99.90
14277;DHT22;7222;57.346;12.150;2022-08-05T11:56:57;20.20;99.90
14277;DHT22;7222;57.346;12.150;2022-08-05T11:59:28;20.50;99.90
14277;DHT22;7222;57.346;12.150;2022-08-05T12:01:57;20.30;99.90
14277;DHT22;7222;57.346;12.150;2022-08-05T12:04:26;19.70;99.90
14277;DHT22;7222;57.346;12.150;2022-08-05T12:06:54;19.90;99.90
14277;DHT22;7222;57.346;12.150;2022-08-05T12:09:25;20.70;99.90
14277;DHT22;7222;57.346;12.150;2022-08-05T12:11:54;20.80;99.90
14277;DHT22;7222;57.346;12.150;2022-08-05T12:14:21;21.20;99.90
14277;DHT22;7222;57.346;12.150;2022-08-05T12:16:51;20.90;99.90
14277;DHT22;7222;57.346;12.150;2022-08-05T12:19:18;20.50;99.90
14277;DHT22;7222;57.346;12.150;2022-08-05T12:21:49;21.20;99.90
14277;DHT22;7222;57.346;12.150;2022-08-05T12:24:18;21.60;99.90
14277;DHT22;7222;57.346;12.150;2022-08-05T12:26:46;20.70;99.90
14277;DHT22;7222;57.346;12.150;2022-08-05T12:29:16;21.30;99.90
14277;DHT22;7222;57.346;12.150;2022-08-05T12:31:45;21.50;99.90
14277;DHT22;7222;57.346;12.150;2022-08-05T12:34:15;22.90;99.90
14277;DHT22;7222;57.346;12.150;2022-08-05T12:36:42;20.00;99.90
14277;DHT22;7222;57.346;12.150;2022-08-05T12:39:10;21.40;99.90
14277;DHT22;7222;57.346;12.150;2022-08-05T12:41:40;22.10;99.90
14277;DHT22;7222;57.346;12.150;2022-08-05T12:44:09;23.00;99.90
14277;DHT22;7222;57.346;12.150;2022-08-05T12:46:38;24.00;99.90
14277;DHT22;7222;57.346;12.150;2022-08-05T12:49:06;22.30;99.90
14277;DHT22;7222;57.346;12.150;2022-08-05T12:51:44;22.80;99.90
14277;DHT22;7222;57.346;12.150;2022-08-05T12:54:18;21.70;99.90
14277;DHT22;7222;57.346;12.150;2022-08-05T12:56:50;22.60;99.90
14277;DHT22;7222;57.346;12.150;2022-08-05T12:59:19;22.00;99.90
14277;DHT22;7222;57.346;12.150;2022-08-05T13:01:54;22.30;99.90
14277;DHT22;7222;57.346;12.150;2022-08-05T13:04:25;22.00;99.90
14277;DHT22;7222;57.346;12.150;2022-08-05T13:06:56;21.90;99.90
14277;DHT22;7222;57.346;12.150;2022-08-05T13:09:24;22.80;99.90
14277;DHT22;7222;57.346;12.150;2022-08-05T13:12:01;23.90;99.90
14277;DHT22;7222;57.346;12.150;2022-08-05T13:14:35;22.00;99.90
14277;DHT22;7222;57.346;12.150;2022-08-05T13:17:07;23.00;99.90
14277;DHT22;7222;57.346;12.150;2022-08-05T13:19:35;22.80;99.90
14277;DHT22;7222;57.346;12.150;2022-08-05T13:22:03;23.20;99.90
14277;DHT22;7222;57.346;12.150;2022-08-05T13:24:30;24.90;99.90
14277;DHT22;7222;57.346;12.150;2022-08-05T13:26:57;23.90;99.90
14277;DHT22;7222;57.346;12.150;2022-08-05T13:29:24;22.10;99.90
14277;DHT22;7222;57.346;12.150;2022-08-05T13:31:51;23.30;99.90
14277;DHT22;7222;57.346;12.150;2022-08-05T13:34:18;23.30;99.90
14277;DHT22;7222;57.346;12.150;2022-08-05T13:36:45;24.00;99.90
14277;DHT22;7222;57.346;12.150;2022-08-05T13:39:13;22.00;99.90
14277;DHT22;7222;57.346;12.150;2022-08-05T13:41:40;23.20;99.90
14277;DHT22;7222;57.346;12.150;2022-08-05T13:44:07;23.70;99.90
14277;DHT22;7222;57.346;12.150;2022-08-05T13:46:34;22.80;99.90
14277;DHT22;7222;57.346;12.150;2022-08-05T13:49:01;23.50;99.90
14277;DHT22;7222;57.346;12.150;2022-08-05T13:51:30;20.80;99.90
14277;DHT22;7222;57.346;12.150;2022-08-05T13:53:57;20.30;99.90
14277;DHT22;7222;57.346;12.150;2022-08-05T13:56:25;21.10;99.90
14277;DHT22;7222;57.346;12.150;2022-08-05T13:58:53;22.80;99.90
14277;DHT22;7222;57.346;12.150;2022-08-05T14:01:20;22.60;99.90
14277;DHT22;7222;57.346;12.150;2022-08-05T14:03:47;23.60;99.90
14277;DHT22;7222;57.346;12.150;2022-08-05T14:06:28;22.40;99.90
14277;DHT22;7222;57.346;12.150;2022-08-05T14:08:55;22.30;99.90
14277;DHT22;7222;57.346;12.150;2022-08-05T14:11:25;23.10;99.90
14277;DHT22;7222;57.346;12.150;2022-08-05T14:13:52;23.20;99.90
14277;DHT22;7222;57.346;12.150;2022-08-05T14:16:20;23.40;99.90
14277;DHT22;7222;57.346;12.150;2022-08-05T14:18:47;22.40;1.00
14277;DHT22;7222;57.346;12.150;2022-08-05T14:21:14;20.80;99.90
14277;DHT22;7222;57.346;12.150;2022-08-05T14:23:41;23.70;99.90
14277;DHT22;7222;57.346;12.150;2022-08-05T14:26:08;22.80;99.90
14277;DHT22;7222;57.346;12.150;2022-08-05T14:28:37;23.00;99.90
14277;DHT22;7222;57.346;12.150;2022-08-05T14:31:04;22.00;1.00
14277;DHT22;7222;57.346;12.150;2022-08-05T14:33:31;22.90;1.00
14277;DHT22;7222;57.346;12.150;2022-08-05T14:35:58;22.30;99.90
14277;DHT22;7222;57.346;12.150;2022-08-05T14:38:25;21.70;99.90
14277;DHT22;7222;57.346;12.150;2022-08-05T14:40:52;21.40;40.20
14277;DHT22;7222;57.346;12.150;2022-08-05T14:43:19;21.80;1.00
14277;DHT22;7222;57.346;12.150;2022-08-05T14:45:47;22.90;61.30
14277;DHT22;7222;57.346;12.150;2022-08-05T14:48:14;23.00;99.90
14277;DHT22;7222;57.346;12.150;2022-08-05T14:50:41;22.40;1.00
14277;DHT22;7222;57.346;12.150;2022-08-05T14:53:08;20.70;99.90
14277;DHT22;7222;57.346;12.150;2022-08-05T14:55:35;21.50;99.90
14277;DHT22;7222;57.346;12.150;2022-08-05T14:58:02;21.90;1.00
14277;DHT22;7222;57.346;12.150;2022-08-05T15:00:29;21.30;1.00
14277;DHT22;7222;57.346;12.150;2022-08-05T15:02:57;21.90;1.00
14277;DHT22;7222;57.346;12.150;2022-08-05T15:05:24;20.80;25.90
14277;DHT22;7222;57.346;12.150;2022-08-05T15:07:52;19.60;99.90
14277;DHT22;7222;57.346;12.150;2022-08-05T15:10:19;21.00;1.00
14277;DHT22;7222;57.346;12.150;2022-08-05T15:12:46;19.70;99.90
14277;DHT22;7222;57.346;12.150;2022-08-05T15:15:13;20.50;10.90
14277;DHT22;7222;57.346;12.150;2022-08-05T15:17:40;20.40;1.00
14277;DHT22;7222;57.346;12.150;2022-08-05T15:20:10;20.90;1.00
14277;DHT22;7222;57.346;12.150;2022-08-05T15:22:37;20.10;99.90
14277;DHT22;7222;57.346;12.150;2022-08-05T15:25:06;21.50;1.00
14277;DHT22;7222;57.346;12.150;2022-08-05T15:27:33;20.90;74.10
14277;DHT22;7222;57.346;12.150;2022-08-05T15:30:00;19.70;1.00
14277;DHT22;7222;57.346;12.150;2022-08-05T15:32:27;19.70;99.90
14277;DHT22;7222;57.346;12.150;2022-08-05T15:34:54;19.70;1.00
14277;DHT22;7222;57.346;12.150;2022-08-05T15:37:23;19.80;1.00
14277;DHT22;7222;57.346;12.150;2022-08-05T15:39:50;19.70;1.00
14277;DHT22;7222;57.346;12.150;2022-08-05T15:42:17;20.50;58.50
14277;DHT22;7222;57.346;12.150;2022-08-05T15:44:44;19.80;1.00